Time;durP1;ratioP1;P1;durP2;ratioP2;P2;SDS_P1;SDS_P2;PMS_P1;PMS_P2;Temp;Humidity;BMP_temperature;BMP_pressure;BME280_temperature;BME280_humidity;BME280_pressure;Samples;Min_cycle;Max_cycle;Signal;HPM_P1;HPM_P2
2022/01/31 00:02:55;;;;;;;2.83;1.30;;;2.00;99.90;;;;;;9952089;29;20534;-80
2022/01/31 00:08:35;;;;;;;4.43;1.23;;;2.00;99.90;;;;;;9954909;29;20208;-80
2022/01/31 00:14:29;;;;;;;1.40;1.00;;;2.00;99.90;;;;;;9946315;29;20221;-80
2022/01/31 00:19:51;;;;;;;3.10;1.00;;;1.90;99.90;;;;;;9924325;29;20314;-80
2022/01/31 00:25:14;;;;;;;3.77;1.00;;;1.80;99.90;;;;;;9936648;29;20204;-80
2022/01/31 00:30:36;;;;;;;2.63;0.77;;;1.80;99.90;;;;;;9936811;29;20440;-80
2022/01/31 00:35:58;;;;;;;2.90;1.37;;;1.80;99.90;;;;;;9923918;29;20429;-80
2022/01/31 00:41:20;;;;;;;3.93;1.33;;;1.70;99.90;;;;;;9988573;29;20255;-80
2022/01/31 00:47:15;;;;;;;7.80;1.10;;;1.60;99.90;;;;;;9995573;29;20231;-80
2022/01/31 00:52:31;;;;;;;4.67;1.57;;;1.60;99.90;;;;;;10014736;29;20302;-79
2022/01/31 00:57:53;;;;;;;2.50;1.40;;;1.60;99.90;;;;;;9995123;29;20242;-80
2022/01/31 01:03:16;;;;;;;6.67;1.70;;;1.60;99.90;;;;;;9997345;29;20300;-80
2022/01/31 01:08:38;;;;;;;5.80;1.53;;;1.60;99.90;;;;;;9979810;29;20202;-80
2022/01/31 01:14:00;;;;;;;5.93;1.80;;;1.50;99.90;;;;;;9992592;29;20206;-80
2022/01/31 01:19:23;;;;;;;3.80;1.23;;;1.40;99.90;;;;;;9994927;29;20310;-80
2022/01/31 01:24:48;;;;;;;5.70;1.73;;;1.40;99.90;;;;;;10007215;29;20200;-80
2022/01/31 01:30:13;;;;;;;5.63;1.40;;;1.40;99.90;;;;;;9993897;29;20283;-80
2022/01/31 01:35:38;;;;;;;6.50;1.33;;;1.40;99.90;;;;;;9990412;29;20415;-80
2022/01/31 01:41:00;;;;;;;6.53;1.23;;;1.30;99.90;;;;;;9993259;29;20315;-80
2022/01/31 01:46:23;;;;;;;3.00;1.10;;;1.20;99.90;;;;;;9993328;29;20513;-80
2022/01/31 01:51:45;;;;;;;2.60;1.00;;;1.20;99.90;;;;;;9979825;29;20472;-80
2022/01/31 01:57:07;;;;;;;9.20;1.80;;;1.20;99.90;;;;;;9992917;29;20234;-80
2022/01/31 02:02:30;;;;;;;6.40;1.13;;;1.10;99.90;;;;;;10005258;29;20254;-80
2022/01/31 02:07:56;;;;;;;5.07;1.27;;;1.10;99.90;;;;;;9977984;29;20213;-80
2022/01/31 02:13:19;;;;;;;6.77;1.70;;;1.10;99.90;;;;;;9984007;29;20200;-80
2022/01/31 02:18:59;;;;;;;6.07;0.90;;;1.10;99.90;;;;;;10023101;29;20227;-80
2022/01/31 02:24:47;;;;;;;5.00;1.30;;;1.10;99.90;;;;;;10004727;29;20218;-80
2022/01/31 02:30:19;;;;;;;3.23;1.43;;;1.10;99.90;;;;;;9993418;29;20526;-80
2022/01/31 02:35:42;;;;;;;5.57;1.60;;;1.00;99.90;;;;;;9983863;29;20292;-80
2022/01/31 02:41:04;;;;;;;4.40;1.27;;;1.00;99.90;;;;;;10004343;29;20244;-80
2022/01/31 02:46:27;;;;;;;4.17;1.50;;;1.00;99.90;;;;;;9990984;29;20355;-80
2022/01/31 02:51:55;;;;;;;5.80;1.60;;;1.00;99.90;;;;;;9964162;29;20210;-80
2022/01/31 02:57:18;;;;;;;3.57;1.33;;;1.00;99.90;;;;;;9991435;29;20196;-80
2022/01/31 03:02:41;;;;;;;8.57;1.67;;;0.90;99.90;;;;;;9975560;29;20452;-80
2022/01/31 03:08:04;;;;;;;6.60;1.47;;;0.90;99.90;;;;;;9990804;29;20240;-80
2022/01/31 03:13:26;;;;;;;6.30;1.80;;;0.80;99.90;;;;;;9972313;29;20457;-80
2022/01/31 03:18:48;;;;;;;3.73;1.50;;;0.80;99.90;;;;;;10003657;29;20236;-80
2022/01/31 03:24:13;;;;;;;4.43;1.83;;;0.80;99.90;;;;;;9990294;29;20286;-80
2022/01/31 03:29:35;;;;;;;7.07;1.93;;;0.90;99.90;;;;;;9990435;29;20302;-80
2022/01/31 03:34:57;;;;;;;6.50;1.53;;;0.90;99.90;;;;;;10003604;29;20204;-80
2022/01/31 03:40:19;;;;;;;3.90;1.30;;;0.90;99.90;;;;;;9965030;29;20262;-79
2022/01/31 03:45:41;;;;;;;5.90;1.30;;;0.90;99.90;;;;;;9952863;29;20200;-79
2022/01/31 03:51:12;;;;;;;6.07;1.50;;;0.80;99.90;;;;;;9937179;29;20216;-79
2022/01/31 03:56:35;;;;;;;5.60;1.50;;;0.90;99.90;;;;;;9937273;29;20200;-80
2022/01/31 04:02:16;;;;;;;2.83;0.90;;;0.90;99.90;;;;;;9926763;29;20544;-80
2022/01/31 04:07:39;;;;;;;4.23;1.40;;;0.90;99.90;;;;;;9937109;29;20205;-80
2022/01/31 04:13:03;;;;;;;4.23;1.40;;;0.90;99.90;;;;;;9936018;29;20215;-80
2022/01/31 04:18:25;;;;;;;5.80;2.07;;;0.90;99.90;;;;;;9956463;29;20227;-80
2022/01/31 04:23:47;;;;;;;3.77;1.90;;;0.80;99.90;;;;;;9943752;29;20387;-80
2022/01/31 04:29:14;;;;;;;3.30;1.37;;;0.80;99.90;;;;;;9944143;29;20379;-80
2022/01/31 04:34:36;;;;;;;7.80;1.60;;;0.80;99.90;;;;;;9958815;29;20203;-80
2022/01/31 04:39:58;;;;;;;5.27;1.83;;;0.90;99.90;;;;;;9943185;29;20247;-80
2022/01/31 04:45:20;;;;;;;4.40;1.60;;;0.90;99.90;;;;;;9958475;29;20390;-80
2022/01/31 04:50:44;;;;;;;3.90;1.23;;;0.90;99.90;;;;;;9942641;29;20219;-80
2022/01/31 04:56:06;;;;;;;6.17;1.43;;;0.80;99.90;;;;;;9955241;29;20214;-80
2022/01/31 05:01:28;;;;;;;4.13;1.73;;;0.80;99.90;;;;;;9955058;29;20240;-80
2022/01/31 05:06:52;;;;;;;8.00;1.60;;;0.90;99.90;;;;;;9942638;29;20277;-80
2022/01/31 05:12:14;;;;;;;6.60;2.33;;;0.80;99.90;;;;;;9957329;29;20407;-80
2022/01/31 05:17:36;;;;;;;6.97;2.30;;;0.80;99.90;;;;;;9932125;30;20229;-80
2022/01/31 05:22:58;;;;;;;6.57;2.17;;;0.80;99.90;;;;;;9947610;29;20232;-81
2022/01/31 05:28:20;;;;;;;3.97;2.00;;;0.70;99.90;;;;;;9941791;29;20210;-80
2022/01/31 05:33:42;;;;;;;6.13;2.80;;;0.70;99.90;;;;;;9941475;29;20219;-80
2022/01/31 05:39:04;;;;;;;7.07;3.23;;;0.70;99.90;;;;;;9941477;29;20224;-80
2022/01/31 05:44:26;;;;;;;6.97;3.00;;;0.60;99.90;;;;;;9994103;29;20211;-79
2022/01/31 05:49:48;;;;;;;9.93;3.43;;;0.60;99.90;;;;;;9985917;29;20205;-80
2022/01/31 05:55:12;;;;;;;8.80;2.80;;;0.60;99.90;;;;;;9953325;29;20272;-80
2022/01/31 06:00:35;;;;;;;3.83;2.27;;;0.60;99.90;;;;;;9969105;29;20464;-80
2022/01/31 06:05:58;;;;;;;5.43;2.20;;;0.50;99.90;;;;;;9990083;29;20534;-80
2022/01/31 06:11:20;;;;;;;3.43;2.10;;;0.50;99.90;;;;;;9977369;29;20279;-80
2022/01/31 06:16:42;;;;;;;9.07;3.60;;;0.50;99.90;;;;;;9977340;29;20282;-80
2022/01/31 06:22:04;;;;;;;6.20;2.20;;;0.50;99.90;;;;;;9965353;29;20236;-79
2022/01/31 06:27:26;;;;;;;4.57;2.10;;;0.40;99.90;;;;;;10005250;29;20265;-79
2022/01/31 06:32:49;;;;;;;9.50;3.20;;;0.40;99.90;;;;;;9996284;29;20202;-80
2022/01/31 06:38:11;;;;;;;7.23;2.73;;;0.40;99.90;;;;;;9976421;29;20249;-79
2022/01/31 06:43:33;;;;;;;8.63;4.87;;;0.40;99.90;;;;;;9975959;29;20254;-80
2022/01/31 06:48:55;;;;;;;10.57;4.87;;;0.40;99.90;;;;;;9991301;29;20206;-80
2022/01/31 06:54:19;;;;;;;4.93;3.23;;;0.40;99.90;;;;;;9988634;29;20569;-80
2022/01/31 06:59:41;;;;;;;7.90;2.50;;;0.40;99.90;;;;;;9963386;29;20233;-80
2022/01/31 07:05:05;;;;;;;6.37;1.83;;;0.40;99.90;;;;;;9976374;29;20219;-79
2022/01/31 07:10:28;;;;;;;8.83;3.90;;;0.40;99.90;;;;;;9990868;29;20202;-80
2022/01/31 07:15:50;;;;;;;6.97;3.30;;;0.50;99.90;;;;;;9998521;29;20214;-80
2022/01/31 07:21:16;;;;;;;6.53;3.17;;;0.50;99.90;;;;;;10012861;29;20406;-80
2022/01/31 07:26:38;;;;;;;7.60;2.83;;;0.50;99.90;;;;;;10025415;29;20205;-79
2022/01/31 07:32:01;;;;;;;8.20;2.70;;;0.60;99.90;;;;;;10025368;29;20207;-81
2022/01/31 07:37:24;;;;;;;7.40;2.87;;;0.70;99.90;;;;;;10028617;29;20232;-77
2022/01/31 07:42:46;;;;;;;8.93;2.63;;;0.70;99.90;;;;;;10034020;29;20262;-78
2022/01/31 07:48:09;;;;;;;5.97;2.53;;;0.80;99.90;;;;;;9992786;29;20204;-79
2022/01/31 07:53:31;;;;;;;8.17;2.17;;;0.90;99.90;;;;;;9969943;29;20226;-78
2022/01/31 07:58:53;;;;;;;4.33;1.80;;;1.00;99.90;;;;;;9997149;29;20401;-79
2022/01/31 08:04:15;;;;;;;11.80;4.73;;;1.10;99.90;;;;;;9969638;29;20264;-80
2022/01/31 08:09:37;;;;;;;20.20;7.93;;;1.20;99.90;;;;;;9996719;29;20199;-79
2022/01/31 08:15:04;;;;;;;18.40;7.80;;;1.30;99.90;;;;;;10014851;29;20208;-79
2022/01/31 08:20:28;;;;;;;11.57;5.40;;;1.30;99.90;;;;;;10010734;29;20243;-79
2022/01/31 08:25:51;;;;;;;13.87;5.73;;;1.40;99.90;;;;;;9983588;29;20209;-79
2022/01/31 08:31:21;;;;;;;16.73;6.07;;;1.50;99.90;;;;;;9901252;29;20256;-81
2022/01/31 08:36:45;;;;;;;18.23;7.47;;;1.70;99.90;;;;;;9977356;29;20429;-79
2022/01/31 08:42:07;;;;;;;18.23;8.00;;;1.90;99.90;;;;;;9996489;29;20248;-83
2022/01/31 08:47:29;;;;;;;23.53;11.57;;;2.60;99.90;;;;;;10000941;29;20211;-81
2022/01/31 08:52:52;;;;;;;19.03;8.53;;;2.90;99.90;;;;;;9989379;29;20217;-80
2022/01/31 08:58:14;;;;;;;12.40;5.97;;;3.30;99.90;;;;;;10002952;29;20284;-83
2022/01/31 09:09:17;;;;;;;9.60;4.53;;;4.10;99.90;;;;;;9989984;29;20239;-83
2022/01/31 09:14:39;;;;;;;10.93;5.17;;;4.20;99.90;;;;;;10013414;29;20237;-80
2022/01/31 09:20:04;;;;;;;9.73;4.20;;;3.60;99.90;;;;;;10029959;29;20605;-83
2022/01/31 09:25:28;;;;;;;12.90;4.37;;;3.30;99.90;;;;;;9974341;29;20239;-82
2022/01/31 09:30:52;;;;;;;10.10;3.70;;;3.00;99.90;;;;;;9969226;29;20221;-83
2022/01/31 09:36:18;;;;;;;10.33;4.00;;;2.90;99.90;;;;;;9973476;29;20219;-83
2022/01/31 09:41:43;;;;;;;12.77;4.90;;;2.90;99.90;;;;;;9966291;29;20245;-89
2022/01/31 09:52:27;;;;;;;12.30;5.43;;;2.80;99.90;;;;;;9965546;29;20556;-86
2022/01/31 09:57:50;;;;;;;8.00;3.37;;;2.70;99.90;;;;;;9989108;29;20283;-83
2022/01/31 10:03:12;;;;;;;7.23;3.70;;;2.60;99.90;;;;;;9990704;29;20264;-85
2022/01/31 10:08:34;;;;;;;8.40;2.67;;;2.50;99.90;;;;;;10005164;29;20491;-83
2022/01/31 10:20:30;;;;;;;13.67;4.23;;;2.60;99.90;;;;;;9984669;29;20241;-81
2022/01/31 10:25:52;;;;;;;16.80;5.50;;;2.90;99.90;;;;;;10006295;29;20220;-81
2022/01/31 10:31:17;;;;;;;15.73;6.10;;;3.10;99.90;;;;;;9989773;29;20212;-81
2022/01/31 10:36:40;;;;;;;10.13;3.53;;;3.20;99.90;;;;;;9956477;29;20215;-86
2022/01/31 10:54:10;;;;;;;11.10;4.03;;;3.40;99.90;;;;;;9884682;30;20433;-81
2022/01/31 10:59:34;;;;;;;10.47;4.07;;;3.40;99.90;;;;;;9856641;30;20415;-80
2022/01/31 11:04:56;;;;;;;12.07;4.27;;;3.50;99.90;;;;;;9877229;30;20232;-83
2022/01/31 11:10:28;;;;;;;15.47;5.73;;;3.50;99.90;;;;;;9878123;30;20284;-82
2022/01/31 11:15:55;;;;;;;13.03;4.70;;;3.60;99.90;;;;;;9848954;30;20475;-82
2022/01/31 11:21:19;;;;;;;23.63;7.20;;;3.70;99.90;;;;;;9878005;29;20260;-81
2022/01/31 11:26:44;;;;;;;30.97;11.37;;;3.90;99.90;;;;;;10041069;29;20217;-78
2022/01/31 11:32:07;;;;;;;10.83;4.07;;;4.40;99.90;;;;;;9979498;29;20510;-78
2022/01/31 11:37:31;;;;;;;4.00;1.77;;;5.30;99.90;;;;;;9969465;29;20270;-81
2022/01/31 11:42:55;;;;;;;8.87;4.20;;;6.10;99.90;;;;;;9972515;29;20251;-82
2022/01/31 11:48:26;;;;;;;12.80;4.77;;;6.50;99.10;;;;;;9997950;29;20229;-81
2022/01/31 11:53:48;;;;;;;3.43;1.70;;;6.90;96.80;;;;;;9996643;29;20291;-81
2022/01/31 11:59:12;;;;;;;10.17;3.37;;;7.60;96.80;;;;;;10010768;29;20201;-86
2022/01/31 12:04:34;;;;;;;20.43;7.23;;;8.10;94.70;;;;;;10000948;29;20233;-78
2022/01/31 12:09:59;;;;;;;6.57;2.50;;;8.30;92.70;;;;;;9958973;29;20233;-81
2022/01/31 12:15:36;;;;;;;14.73;4.97;;;8.30;93.10;;;;;;9974086;29;20209;-81
2022/01/31 12:26:52;;;;;;;11.40;5.10;;;8.10;70.40;;;;;;9963151;29;20494;-82
2022/01/31 12:32:16;;;;;;;14.70;7.87;;;6.90;73.40;;;;;;9974387;29;20216;-79
2022/01/31 12:37:41;;;;;;;13.40;6.10;;;5.80;85.90;;;;;;9991181;29;20211;-81
2022/01/31 12:48:29;;;;;;;27.67;16.43;;;4.40;97.00;;;;;;9993332;29;20206;-82
2022/01/31 12:53:53;;;;;;;14.77;8.00;;;4.00;99.90;;;;;;10002645;29;20208;-80
2022/01/31 12:59:17;;;;;;;17.63;7.47;;;3.80;99.90;;;;;;10014571;29;20271;-82
2022/01/31 13:04:39;;;;;;;11.23;4.57;;;4.00;99.90;;;;;;9996989;29;20254;-79
2022/01/31 13:10:12;;;;;;;15.20;5.57;;;4.40;99.90;;;;;;10003154;29;20207;-78
2022/01/31 13:15:35;;;;;;;8.93;3.87;;;5.10;99.90;;;;;;9980336;29;20234;-79
2022/01/31 13:21:11;;;;;;;13.00;5.60;;;6.10;95.80;;;;;;9994421;29;20228;-80
2022/01/31 13:26:55;;;;;;;10.27;5.03;;;6.30;93.60;;;;;;10008857;29;20202;-86
2022/01/31 13:32:21;;;;;;;8.07;3.80;;;5.70;94.30;;;;;;9997080;29;20207;-84
2022/01/31 13:38:01;;;;;;;14.30;6.63;;;5.00;97.90;;;;;;9989779;29;20208;-80
2022/01/31 13:43:38;;;;;;;13.83;5.40;;;4.50;99.70;;;;;;10001546;29;20329;-86
2022/01/31 13:54:28;;;;;;;11.93;3.40;;;4.10;99.90;;;;;;10001596;29;20202;-82
2022/01/31 13:59:51;;;;;;;18.00;4.53;;;3.80;99.90;;;;;;9992398;29;20206;-83
2022/01/31 14:05:21;;;;;;;15.27;5.30;;;3.60;99.90;;;;;;10003003;29;20507;-87
2022/01/31 14:10:45;;;;;;;17.80;6.50;;;3.50;99.90;;;;;;10028826;29;20284;-87
2022/01/31 14:16:12;;;;;;;13.57;5.03;;;3.30;99.90;;;;;;10003033;29;20209;-86
2022/01/31 14:21:36;;;;;;;13.53;4.67;;;3.20;99.90;;;;;;9986934;29;20323;-82
2022/01/31 14:27:02;;;;;;;7.43;2.90;;;3.00;99.90;;;;;;10018813;29;20204;-80
2022/01/31 14:32:29;;;;;;;18.03;6.80;;;2.80;99.90;;;;;;9970663;29;20236;-84
2022/01/31 14:37:56;;;;;;;25.63;9.43;;;2.60;99.90;;;;;;10002134;29;20204;-87
2022/01/31 14:49:21;;;;;;;20.07;7.70;;;2.40;99.90;;;;;;10004132;29;20377;-80
2022/01/31 14:55:00;;;;;;;25.23;11.17;;;2.30;99.90;;;;;;9987934;29;20219;-85
2022/01/31 15:00:25;;;;;;;19.33;8.10;;;2.30;99.90;;;;;;9994337;29;20271;-83
2022/01/31 15:05:52;;;;;;;18.83;8.30;;;2.20;99.90;;;;;;10002591;29;20276;-86
2022/01/31 15:11:14;;;;;;;18.47;9.10;;;2.00;99.90;;;;;;9982376;29;20506;-87
2022/01/31 15:16:38;;;;;;;57.60;23.87;;;1.90;99.90;;;;;;9954405;29;20222;-87
2022/01/31 15:22:01;;;;;;;67.20;24.57;;;1.70;99.90;;;;;;9985321;29;20273;-84
2022/01/31 15:27:23;;;;;;;44.13;18.30;;;1.60;99.90;;;;;;10008492;29;20201;-84
2022/01/31 15:32:45;;;;;;;47.10;17.70;;;1.50;99.90;;;;;;9987789;29;20253;-80
2022/01/31 15:38:09;;;;;;;65.63;25.30;;;1.40;99.90;;;;;;10012103;29;20210;-81
2022/01/31 15:43:32;;;;;;;47.33;19.53;;;1.40;99.90;;;;;;10025479;29;20270;-80
2022/01/31 15:49:08;;;;;;;53.23;22.43;;;1.30;99.90;;;;;;9979478;29;20239;-84
2022/01/31 15:54:31;;;;;;;49.63;23.53;;;1.10;99.90;;;;;;9988804;29;20210;-79
2022/01/31 15:59:54;;;;;;;31.43;13.93;;;1.10;99.90;;;;;;9988017;29;20221;-82
2022/01/31 16:05:31;;;;;;;31.83;14.50;;;1.00;99.90;;;;;;10034750;29;20210;-79
2022/01/31 16:10:55;;;;;;;40.07;17.57;;;0.90;99.90;;;;;;10004147;29;20450;-79
2022/01/31 16:16:26;;;;;;;97.40;47.87;;;0.80;99.90;;;;;;10008756;29;20246;-79
2022/01/31 16:21:49;;;;;;;56.10;29.90;;;0.80;99.90;;;;;;9995613;29;20235;-79
2022/01/31 16:27:11;;;;;;;24.20;13.60;;;0.70;99.90;;;;;;9980323;29;20203;-80
2022/01/31 16:32:33;;;;;;;18.93;9.60;;;0.60;99.90;;;;;;10011177;29;20202;-78
2022/01/31 16:37:56;;;;;;;11.23;6.20;;;0.50;99.90;;;;;;10005020;29;20537;-78
2022/01/31 16:43:19;;;;;;;12.30;6.43;;;0.50;99.90;;;;;;9992041;29;20249;-79
2022/01/31 16:48:41;;;;;;;29.33;11.90;;;0.50;99.90;;;;;;9993306;29;20204;-79
2022/01/31 16:54:03;;;;;;;38.47;16.73;;;0.50;99.90;;;;;;10007812;29;20204;-79
2022/01/31 16:59:26;;;;;;;58.83;21.03;;;0.40;99.90;;;;;;9995010;29;20366;-80
2022/01/31 17:04:48;;;;;;;50.60;23.43;;;0.40;99.90;;;;;;9982522;29;20229;-79
2022/01/31 17:10:16;;;;;;;52.23;21.33;;;0.40;99.90;;;;;;9991829;29;20252;-79
2022/01/31 17:15:40;;;;;;;37.80;16.73;;;0.30;99.90;;;;;;9976989;29;20423;-79
2022/01/31 17:21:11;;;;;;;38.27;16.43;;;0.30;99.90;;;;;;9983849;29;20235;-79
2022/01/31 17:26:34;;;;;;;40.60;17.30;;;0.30;99.90;;;;;;9994138;29;20430;-78
2022/01/31 17:31:56;;;;;;;44.63;18.07;;;0.40;99.90;;;;;;9993150;29;20199;-79
2022/01/31 17:37:18;;;;;;;78.57;39.10;;;0.40;99.90;;;;;;9993719;29;20207;-78
2022/01/31 17:42:52;;;;;;;67.87;34.13;;;0.30;99.90;;;;;;10007098;29;20571;-78
2022/01/31 17:48:16;;;;;;;49.83;28.77;;;0.30;99.90;;;;;;9993345;29;20225;-78
2022/01/31 17:53:39;;;;;;;33.97;16.90;;;0.30;99.90;;;;;;10006089;29;20205;-79
2022/01/31 17:59:01;;;;;;;25.07;10.77;;;0.40;99.90;;;;;;9993057;29;20282;-78
2022/01/31 18:04:27;;;;;;;26.17;10.30;;;0.40;99.90;;;;;;9993780;29;20290;-79
2022/01/31 18:09:49;;;;;;;30.13;11.60;;;0.30;99.90;;;;;;9993018;29;20248;-80
2022/01/31 18:15:13;;;;;;;28.53;12.10;;;0.30;99.90;;;;;;10005134;29;20435;-79
2022/01/31 18:20:36;;;;;;;29.90;13.00;;;0.30;99.90;;;;;;9965043;29;20218;-79
2022/01/31 18:25:58;;;;;;;45.37;18.30;;;0.40;99.90;;;;;;9977105;29;20232;-79
2022/01/31 18:31:22;;;;;;;40.00;15.60;;;0.40;99.90;;;;;;9989588;29;20217;-79
2022/01/31 18:36:45;;;;;;;33.53;12.60;;;0.40;99.90;;;;;;9976599;29;20211;-79
2022/01/31 18:42:07;;;;;;;56.40;20.13;;;0.40;99.90;;;;;;9976254;29;20255;-79
2022/01/31 18:47:30;;;;;;;65.53;24.23;;;0.40;99.90;;;;;;9976365;29;20509;-80
2022/01/31 18:52:55;;;;;;;53.67;23.47;;;0.30;99.90;;;;;;9987809;29;20221;-79
2022/01/31 18:58:17;;;;;;;52.20;21.23;;;0.30;99.90;;;;;;9976384;29;20236;-79
2022/01/31 19:03:39;;;;;;;34.27;15.30;;;0.20;99.90;;;;;;9975819;29;20249;-79
2022/01/31 19:09:11;;;;;;;22.50;11.40;;;0.20;99.90;;;;;;9988356;29;20364;-78
2022/01/31 19:20:03;;;;;;;20.70;9.97;;;0.20;99.90;;;;;;9992079;29;20213;-78
2022/01/31 19:25:25;;;;;;;22.00;9.60;;;0.30;99.90;;;;;;9968068;29;20235;-78
2022/01/31 19:30:52;;;;;;;27.60;11.40;;;0.30;99.90;;;;;;9966437;29;20491;-78
2022/01/31 19:36:14;;;;;;;27.60;12.10;;;0.30;99.90;;;;;;9952240;29;20525;-78
2022/01/31 19:47:16;;;;;;;24.13;11.37;;;0.40;99.90;;;;;;9966073;29;20219;-78
2022/01/31 19:52:38;;;;;;;22.33;10.30;;;0.30;99.90;;;;;;9987861;29;20204;-78
2022/01/31 19:58:01;;;;;;;20.23;8.53;;;0.30;99.90;;;;;;10002397;29;20212;-78
2022/01/31 20:03:23;;;;;;;15.60;7.33;;;0.30;99.90;;;;;;10002419;29;20291;-78
2022/01/31 20:08:46;;;;;;;13.73;6.30;;;0.30;99.90;;;;;;10002279;29;20223;-78
2022/01/31 20:14:09;;;;;;;22.70;8.80;;;0.40;99.90;;;;;;10002177;29;20211;-78
2022/01/31 20:19:31;;;;;;;27.50;11.00;;;0.30;99.90;;;;;;9987080;29;20238;-78
2022/01/31 20:24:53;;;;;;;30.50;11.23;;;0.40;99.90;;;;;;10002336;29;20294;-78
2022/01/31 20:30:15;;;;;;;27.43;10.73;;;0.30;99.90;;;;;;10001893;29;20206;-78
2022/01/31 20:35:38;;;;;;;24.50;10.77;;;0.10;99.90;;;;;;9988702;29;20388;-78
2022/01/31 20:41:35;;;;;;;28.57;11.77;;;-0.10;99.90;;;;;;10001353;29;20265;-78
2022/01/31 20:46:45;;;;;;;24.50;10.80;;;-0.10;99.90;;;;;;10001455;29;20203;-78
2022/01/31 20:52:07;;;;;;;22.60;10.07;;;-0.10;99.90;;;;;;9964449;29;20496;-79
2022/01/31 20:57:30;;;;;;;16.70;8.20;;;-0.20;99.90;;;;;;9969432;29;20554;-78
2022/01/31 21:02:52;;;;;;;21.23;7.83;;;-0.30;99.90;;;;;;9957072;29;20288;-78
2022/01/31 21:08:19;;;;;;;14.90;6.17;;;-0.30;99.90;;;;;;9959620;29;20230;-78
2022/01/31 21:13:41;;;;;;;13.30;4.90;;;-0.20;99.90;;;;;;9982197;29;20217;-78
2022/01/31 21:19:03;;;;;;;12.77;4.90;;;-0.20;99.90;;;;;;10003491;29;20273;-78
2022/01/31 21:24:28;;;;;;;10.70;4.37;;;-0.10;99.90;;;;;;10006906;29;20254;-79
2022/01/31 21:29:50;;;;;;;17.10;6.07;;;0.00;99.90;;;;;;9996731;29;20455;-79
2022/01/31 21:35:12;;;;;;;16.17;7.40;;;0.10;99.90;;;;;;9994015;29;20221;-78
2022/01/31 21:40:34;;;;;;;15.67;6.80;;;0.10;99.90;;;;;;10006187;29;20297;-78
2022/01/31 21:45:57;;;;;;;14.47;6.03;;;0.10;99.90;;;;;;10008440;29;20258;-78
2022/01/31 21:51:19;;;;;;;14.10;6.33;;;0.10;99.90;;;;;;9960601;29;20557;-78
2022/01/31 21:56:41;;;;;;;19.33;6.73;;;0.10;99.90;;;;;;9968591;29;20221;-78
2022/01/31 22:02:03;;;;;;;12.03;4.67;;;0.10;99.90;;;;;;9968087;29;20238;-78
2022/01/31 22:07:26;;;;;;;7.07;3.87;;;0.10;99.90;;;;;;9967096;29;20245;-79
2022/01/31 22:12:48;;;;;;;8.00;3.63;;;0.20;99.90;;;;;;9984532;29;20317;-80
2022/01/31 22:18:11;;;;;;;7.00;3.07;;;0.10;99.90;;;;;;9980622;29;20233;-79
2022/01/31 22:23:33;;;;;;;7.77;3.20;;;0.20;99.90;;;;;;9980560;29;20297;-78
2022/01/31 22:29:00;;;;;;;7.07;3.27;;;0.20;99.90;;;;;;9967293;29;20207;-78
2022/01/31 22:34:22;;;;;;;4.30;2.60;;;0.20;99.90;;;;;;9967245;29;20565;-78
2022/01/31 22:39:44;;;;;;;5.70;2.80;;;0.20;99.90;;;;;;9954143;29;20252;-78
2022/01/31 22:45:07;;;;;;;8.80;3.40;;;0.20;99.90;;;;;;9979778;29;20459;-78
2022/01/31 22:50:29;;;;;;;9.07;2.90;;;0.10;99.90;;;;;;9966809;29;20274;-78
2022/01/31 22:55:51;;;;;;;7.50;3.03;;;0.10;99.90;;;;;;9966897;29;20553;-78
2022/01/31 23:01:15;;;;;;;7.50;2.80;;;0.10;99.90;;;;;;9995433;29;20285;-78
2022/01/31 23:06:38;;;;;;;6.17;2.50;;;0.00;99.90;;;;;;10004416;29;20206;-79
2022/01/31 23:12:00;;;;;;;6.27;3.17;;;-0.10;99.90;;;;;;9990570;29;20234;-79
2022/01/31 23:17:33;;;;;;;7.63;2.90;;;-0.20;99.90;;;;;;9976917;29;20237;-79
